Terminal Aerodrome Forecast
Issued by NWS Albuquerque, NM

Home | Current Version | Previous Version | Text Only | Print | Product List | Glossary On
Versions: 1 2 3 4 5 6 7 8 9 10 11 12 13 14 15
000
FTUS45 KABQ 311721
TAFABQ
TAF
KABQ 311721Z 3118/0118 32006KT P6SM FEW080
     FM312100 28007KT P6SM SCT080
     FM312300 29012KT P6SM VCSH BKN090
     FM010400 32005KT P6SM BKN100=

USA.gov is the U.S. government's official web portal to all federal, state and local government web resources and services.